Latest Weather Observations for Blackall

IDQ60801

Issued at 8:32 pm EST Monday 26 January 2015 (issued every 30 minutes, with the page automatically refreshed every 10 minutes)

About weather observations | Map of weather stations | Latest weather observations for QLD | Other Formats
Station Details ID: 036034 Name: BLACKALL AIRPORT Lat: -24.43 Lon: 145.43 Height: 281.3 m
Data from the previous 72 hours. | See also: Recent months at Blackall
Date/Time
EST
Temp
°C
App
Temp
°C
Dew
Point
Rel
Hum
%
Delta-T
°C
Wind Press
QNH
hPa
Press
MSL
hPa
Rain
since 9 am
mm
Dir
 
Spd
km/h
Gust
km/h
Spd
kts
Gust
kts
26/08:30pm 34.2 31.2 3.9 15 16.1 SW 9 13 5 7 1003.5 1001.4 0.0
26/08:00pm 34.8 30.9 1.2 12 17.2 WSW 11 15 6 8 1003.3 1001.2 0.0
26/07:30pm 36.3 32.2 -0.2 10 18.4 WSW 11 17 6 9 1003.0 1000.8 0.0
26/07:00pm 37.9 33.4 -0.4 9 19.5 W 13 20 7 11 1002.4 1000.3 0.0
26/06:30pm 39.2 34.5 0.6 9 20.1 W 15 24 8 13 1002.0 999.9 0.0
26/06:00pm 39.7 34.4 -0.7 8 20.6 WSW 17 35 9 19 1001.9 999.8 0.0
26/05:30pm 40.2 35.3 -0.3 8 20.8 W 15 30 8 16 1001.7 999.6 0.0
26/05:00pm 41.0 34.9 0.3 8 21.3 WSW 22 35 12 19 1001.8 999.7 0.0
26/04:30pm 40.6 34.8 0.0 8 21.0 W 20 33 11 18 1001.9 999.8 0.0
26/04:00pm 41.2 35.5 0.4 8 21.4 W 20 35 11 19 1001.8 999.7 0.0
26/03:30pm 41.6 37.3 0.7 8 21.5 W 13 35 7 19 1002.1 1000.0 0.0
26/03:09pm 41.2 36.0 0.4 8 21.4 W 17 46 9 25 1002.4 1000.3 0.0
26/03:00pm 41.1 35.2 2.0 9 21.0 W 22 39 12 21 1002.6 1000.5 0.0
26/02:53pm 41.1 36.2 2.0 9 20.9 WSW 17 39 9 21 1002.7 1000.6 0.0
26/02:30pm 40.9 36.3 1.8 9 20.8 SW 15 24 8 13 1003.0 1000.8 0.0
26/02:00pm 40.3 35.5 2.8 10 20.3 W 17 32 9 17 1003.4 1001.3 0.0
26/01:30pm 40.7 35.7 4.5 11 20.0 W 20 37 11 20 1003.9 1001.8 0.0
26/01:00pm 39.9 36.3 5.1 12 19.4 WNW 13 28 7 15 1004.3 1002.2 0.0
26/12:30pm 39.4 36.0 5.9 13 18.9 WNW 13 20 7 11 1004.7 1002.6 0.0
26/12:00pm 37.1 35.2 10.4 20 15.9 NW 11 17 6 9 1005.1 1003.0 0.0
26/11:30am 36.0 34.4 12.9 25 14.2 NW 13 22 7 12 1005.6 1003.5 0.0
26/11:00am 35.5 34.6 15.8 31 12.6 WNW 15 26 8 14 1006.0 1003.9 0.0
26/10:30am 33.9 33.2 16.3 35 11.2 NNW 15 26 8 14 1006.1 1004.0 0.0
26/10:00am 32.6 31.6 15.6 36 10.7 NW 15 22 8 12 1006.5 1004.5 0.0
26/09:30am 31.4 30.5 17.7 44 8.9 NW 19 26 10 14 1006.8 1004.7 0.0
26/09:00am 30.4 30.1 18.2 48 7.9 NW 17 30 9 16 1006.8 1004.7 0.0
26/08:30am 29.4 28.0 18.8 53 6.9 NNW 24 32 13 17 1006.9 1004.8 0.0
26/08:00am 28.4 27.5 19.9 60 5.6 NNW 24 35 13 19 1006.8 1004.7 0.0
26/07:30am 27.3 26.0 19.9 64 4.9 NNW 26 35 14 19 1006.8 1004.7 0.0
26/07:00am 27.1 26.7 20.2 66 4.6 NNW 22 32 12 17 1006.8 1004.7 0.0
26/06:30am 26.3 26.4 19.9 68 4.2 N 19 24 10 13 1006.5 1004.5 0.0
26/06:00am 25.7 26.2 20.0 71 3.8 N 17 26 9 14 1006.3 1004.2 0.0
26/05:30am 26.0 26.1 19.9 69 4.0 N 19 26 10 14 1005.8 1003.7 0.0
26/05:00am 26.0 26.8 19.9 69 4.0 NNE 15 20 8 11 1005.6 1003.5 0.0
26/04:30am 26.7 27.4 19.6 65 4.6 N 15 24 8 13 1005.5 1003.4 0.0
26/04:00am 27.2 28.1 19.3 62 5.2 N 13 20 7 11 1005.5 1003.4 0.0
26/03:30am 27.4 28.1 18.9 59 5.5 N 13 24 7 13 1005.3 1003.2 0.0
26/03:00am 27.2 28.1 18.5 59 5.6 NNE 11 15 6 8 1005.2 1003.1 0.0
26/02:00am 28.1 29.0 18.5 56 6.2 N 11 13 6 7 1005.2 1003.1 0.0
26/01:30am 29.1 30.0 18.5 52 6.9 N 11 17 6 9 1005.5 1003.4 0.0
26/01:00am 29.4 29.8 18.2 51 7.3 N 13 17 7 9 1006.1 1004.0 0.0
26/12:30am 30.1 30.9 18.2 49 7.7 NNW 11 17 6 9 1006.4 1004.4 0.0
26/12:00am 30.5 31.2 17.9 47 8.2 N 11 17 6 9 1006.8 1004.7 0.0
 
Date/Time
EST
Temp
°C
App
Temp
°C
Dew
Point
Rel
Hum
%
Delta-T
°C
Wind Press
QNH
hPa
Press
MSL
hPa
Rain
since 9 am
mm
Dir
 
Spd
km/h
Gust
km/h
Spd
kts
Gust
kts
25/11:30pm 30.6 31.6 17.7 46 8.3 NNE 9 13 5 7 1006.9 1004.8 0.0
25/11:00pm 31.2 31.3 17.5 44 8.8 NNE 13 20 7 11 1006.6 1004.6 0.0
25/10:30pm 31.9 31.4 17.0 41 9.5 NNE 15 19 8 10 1006.2 1004.1 0.0
25/10:00pm 32.9 30.6 16.7 38 10.4 NE 24 35 13 19 1005.9 1003.8 0.0
25/09:30pm 33.9 33.2 16.3 35 11.2 N 15 20 8 11 1005.3 1003.2 0.0
25/09:00pm 34.9 35.5 15.3 31 12.4 NNE 6 11 3 6 1005.2 1003.1 0.0
25/08:30pm 36.4 36.2 10.6 21 15.3 WSW 2 7 1 4 1005.0 1002.9 0.0
25/08:00pm 37.3 36.2 10.6 20 16.0 SSE 7 9 4 5 1004.2 1002.1 0.0
25/07:30pm 37.8 35.8 10.2 19 16.4 SSE 11 17 6 9 1003.8 1001.7 0.0
25/07:00pm 38.6 36.1 10.9 19 16.7 S 15 22 8 12 1003.3 1001.2 0.0
25/06:30pm 39.0 36.2 11.2 19 16.8 SSE 17 26 9 14 1002.7 1000.6 0.0
25/06:00pm 39.0 37.7 11.2 19 16.9 S 9 15 5 8 1002.3 1000.2 0.0
25/05:30pm 39.9 37.0 11.1 18 17.5 SSW 17 28 9 15 1002.2 1000.1 0.0
25/05:00pm 39.4 37.9 10.7 18 17.3 S 9 19 5 10 1002.1 1000.0 0.0
25/04:30pm 40.0 36.8 11.2 18 17.5 WSW 19 28 10 15 1002.2 1000.1 0.0
25/04:00pm 39.8 35.7 10.2 17 17.8 SW 22 32 12 17 1002.5 1000.4 0.0
25/03:30pm 39.9 36.4 10.2 17 17.8 SW 19 32 10 17 1002.8 1000.7 0.0
25/03:00pm 40.2 36.3 9.6 16 18.2 SW 20 35 11 19 1003.2 1001.0 0.0
25/02:30pm 41.0 37.0 9.2 15 18.8 SW 20 32 11 17 1003.4 1001.3 0.0
25/02:00pm 40.4 37.4 10.6 17 18.0 WNW 17 30 9 16 1003.7 1001.6 0.0
25/01:30pm 40.2 37.4 11.3 18 17.6 WNW 17 30 9 16 1004.2 1002.1 0.0
25/01:00pm 39.0 37.5 14.1 23 15.7 NW 15 24 8 13 1004.9 1002.8 0.0
25/12:30pm 40.4 39.4 14.6 22 16.4 W 13 35 7 19 1005.2 1003.1 0.0
25/12:00pm 38.8 38.3 15.8 25 14.8 W 13 22 7 12 1005.7 1003.6 0.0
25/11:30am 38.1 38.4 16.9 28 13.8 NNW 11 22 6 12 1006.1 1004.0 0.0
25/11:00am 37.6 37.3 16.5 28 13.7 W 13 24 7 13 1006.5 1004.5 0.0
25/10:30am 36.0 35.1 17.7 34 12.0 W 19 35 10 19 1006.9 1004.8 0.0
25/10:00am 35.3 35.6 18.0 36 11.4 NW 13 22 7 12 1007.3 1005.2 0.0
25/09:30am 34.2 34.7 18.3 39 10.4 NW 13 20 7 11 1007.4 1005.3 0.0
25/09:00am 33.7 35.0 20.1 44 9.2 WNW 13 20 7 11 1007.6 1005.5 0.0
25/08:30am 32.3 32.4 19.9 48 8.3 WNW 19 28 10 15 1007.7 1005.6 0.0
25/08:00am 31.0 31.8 20.6 54 7.0 NNW 17 24 9 13 1007.6 1005.5 0.0
25/07:30am 29.5 30.9 20.4 58 6.1 NNW 13 20 7 11 1007.5 1005.4 0.0
25/07:00am 28.2 28.5 20.5 63 5.1 N 19 22 10 12 1007.1 1005.0 0.0
25/06:30am 27.2 28.7 20.5 67 4.4 N 13 15 7 8 1007.0 1004.9 0.0
25/06:00am 26.5 27.9 20.3 68 4.1 N 13 17 7 9 1006.3 1004.2 0.0
25/05:30am 26.6 28.3 20.2 68 4.2 N 11 15 6 8 1006.1 1004.0 0.0
25/05:00am 26.8 28.1 20.2 67 4.4 N 13 17 7 9 1005.7 1003.6 0.0
25/04:30am 26.9 28.1 20.0 66 4.5 N 13 17 7 9 1005.3 1003.2 0.0
25/04:00am 27.4 28.3 20.0 64 4.9 N 15 19 8 10 1005.0 1002.9 0.0
25/03:30am 27.7 28.9 20.0 63 5.1 N 13 19 7 10 1004.8 1002.7 0.0
25/03:00am 28.2 29.1 20.0 61 5.4 N 15 22 8 12 1004.7 1002.6 0.0
25/02:30am 28.4 28.8 19.9 60 5.6 N 17 22 9 12 1004.8 1002.7 0.0
25/02:00am 28.3 29.8 19.8 60 5.6 N 11 17 6 9 1005.1 1003.0 0.0
25/01:30am 28.6 29.8 19.8 59 5.8 N 13 19 7 10 1005.1 1003.0 0.0
25/01:00am 29.0 29.4 19.9 58 6.0 N 17 22 9 12 1005.3 1003.2 0.0
25/12:30am 29.4 29.5 20.0 57 6.2 N 19 26 10 14 1005.6 1003.5 0.0
25/12:00am 29.9 29.9 20.2 56 6.5 N 20 28 11 15 1005.9 1003.8 0.0
 
Date/Time
EST
Temp
°C
App
Temp
°C
Dew
Point
Rel
Hum
%
Delta-T
°C
Wind Press
QNH
hPa
Press
MSL
hPa
Rain
since 9 am
mm
Dir
 
Spd
km/h
Gust
km/h
Spd
kts
Gust
kts
24/11:30pm 30.3 29.8 19.9 53 6.9 N 22 30 12 16 1006.0 1003.9 0.0
24/11:00pm 30.9 29.9 19.6 51 7.5 N 24 33 13 18 1005.9 1003.8 0.0
24/10:30pm 31.7 31.3 19.3 47 8.2 N 20 28 11 15 1006.0 1003.9 0.0
24/10:00pm 32.3 31.5 19.2 46 8.7 N 22 28 12 15 1005.7 1003.6 0.0
24/09:30pm 32.7 32.1 18.5 43 9.3 N 19 24 10 13 1005.6 1003.5 0.0
24/09:00pm 33.4 32.4 17.5 38 10.3 NNE 19 32 10 17 1005.2 1003.1 0.0
24/08:30pm 34.8 34.6 13.6 28 13.1 SSE 7 11 4 6 1004.5 1002.4 0.0
24/08:00pm 34.6 34.3 13.4 28 13.1 SSE 7 11 4 6 1004.0 1001.9 0.0
24/07:30pm 36.0 36.0 13.5 26 13.9 S 6 9 3 5 1003.5 1001.4 0.0
24/07:00pm 36.9 36.1 13.0 24 14.8 SSW 9 15 5 8 1003.0 1000.8 0.0
24/06:30pm 37.4 36.6 12.8 23 15.1 SSW 9 15 5 8 1002.5 1000.4 0.0
24/06:00pm 38.0 37.0 13.3 23 15.4 SSW 11 17 6 9 1002.1 1000.0 0.0
24/05:30pm 37.9 36.4 13.2 23 15.3 SSW 13 20 7 11 1002.2 1000.1 0.0
24/05:00pm 38.1 37.0 12.0 21 16.0 WSW 9 19 5 10 1002.0 999.9 0.0
24/04:30pm 38.6 37.6 12.4 21 16.1 WSW 9 28 5 15 1002.0 999.9 0.0
24/04:00pm 38.4 37.6 12.9 22 15.8 WSW 9 22 5 12 1002.3 1000.2 0.0
24/03:30pm 38.3 36.9 13.5 23 15.5 SW 13 20 7 11 1002.7 1000.6 0.0
24/03:00pm 38.3 37.9 14.2 24 15.2 W 9 19 5 10 1003.1 1000.9 0.0
24/02:30pm 37.1 36.3 15.0 27 14.0 W 13 24 7 13 1003.5 1001.4 0.0
24/02:00pm 37.3 36.5 15.2 27 14.1 SW 13 24 7 13 1003.8 1001.7 0.0
24/01:30pm 37.6 37.4 14.8 25 14.4 SSW 9 20 5 11 1004.2 1002.1 0.0
24/01:00pm 37.0 37.3 16.0 28 13.5 WNW 9 20 5 11 1004.6 1002.5 0.0
24/12:30pm 36.2 36.5 15.9 30 13.0 WNW 9 17 5 9 1004.9 1002.8 0.0
24/12:00pm 35.8 35.9 16.5 31 12.5 WSW 11 20 6 11 1005.3 1003.2 0.0
24/11:30am 35.4 35.2 16.7 33 12.1 WNW 13 20 7 11 1005.8 1003.7 0.0
24/11:00am 34.8 34.8 17.1 35 11.5 WNW 13 30 7 16 1006.1 1004.0 0.0
24/10:30am 33.8 34.1 17.1 37 10.8 NW 11 20 6 11 1006.5 1004.5 0.0
24/10:00am 33.3 35.2 19.0 42 9.5 SW 7 19 4 10 1006.8 1004.7 0.0
24/09:30am 32.8 34.6 19.6 45 8.8 NNW 9 17 5 9 1006.9 1004.8 0.0
24/09:00am 31.5 32.5 19.5 49 8.0 N 13 19 7 10 1006.9 1004.8 0.0
24/08:30am 30.1 30.8 18.8 50 7.4 NNW 13 22 7 12 1007.0 1004.9 0.0
24/08:00am 28.5 29.9 18.6 55 6.4 NNE 9 13 5 7 1006.9 1004.8 0.0
24/07:30am 27.9 29.0 18.9 58 5.9 NE 11 17 6 9 1006.5 1004.5 0.0
24/07:00am 26.7 27.2 18.3 60 5.4 ENE 13 19 7 10 1006.3 1004.2 0.0
24/06:30am 25.4 26.6 18.3 65 4.5 ENE 9 11 5 6 1006.2 1004.1 0.0
24/06:00am 23.8 25.4 17.8 69 3.8 E 6 7 3 4 1005.9 1003.8 0.0
24/05:30am 23.8 25.4 17.8 69 3.8 E 6 7 3 4 1005.9 1003.8 0.0
24/05:00am 24.3 25.9 17.8 67 4.1 E 6 7 3 4 1005.8 1003.7 0.0
24/04:30am 24.7 26.1 17.9 66 4.3 ENE 7 9 4 5 1005.5 1003.4 0.0
24/04:00am 24.9 26.0 18.1 66 4.3 ENE 9 11 5 6 1005.4 1003.3 0.0
24/03:30am 24.8 26.4 17.8 65 4.4 E 6 7 3 4 1005.2 1003.1 0.0
24/03:00am 24.9 26.5 17.9 65 4.5 NE 6 7 3 4 1005.2 1003.1 0.0
24/02:30am 25.8 26.9 18.0 62 5.0 ENE 9 11 5 6 1005.2 1003.1 0.0
24/02:00am 26.1 26.9 18.2 61 5.1 ESE 11 15 6 8 1005.2 1003.1 0.0
24/01:30am 26.5 27.4 18.4 61 5.2 E 11 13 6 7 1005.4 1003.3 0.0
24/01:00am 26.6 27.4 18.2 60 5.4 ESE 11 15 6 8 1005.5 1003.4 0.0
24/12:30am 27.1 27.4 17.8 56 5.9 SE 13 17 7 9 1005.6 1003.5 0.0
24/12:00am 27.6 27.4 17.7 54 6.3 ESE 15 20 8 11 1005.8 1003.7 0.0
 
Date/Time
EST
Temp
°C
App
Temp
°C
Dew
Point
Rel
Hum
%
Delta-T
°C
Wind Press
QNH
hPa
Press
MSL
hPa
Rain
since 9 am
mm
Dir
 
Spd
km/h
Gust
km/h
Spd
kts
Gust
kts
23/11:30pm 28.2 28.0 17.7 53 6.7 ESE 15 20 8 11 1006.1 1004.0 0.0
23/11:00pm 28.7 28.5 17.6 51 7.1 ESE 15 19 8 10 1006.0 1003.9 0.0
23/10:30pm 29.2 28.8 17.1 48 7.7 ESE 15 22 8 12 1005.8 1003.7 0.0
23/10:00pm 29.8 28.5 16.9 45 8.2 ESE 19 24 10 13 1005.6 1003.5 0.0
23/09:30pm 30.3 28.8 16.3 42 8.8 ESE 19 24 10 13 1005.2 1003.1 0.0
23/09:00pm 30.8 29.8 15.6 39 9.5 SE 15 20 8 11 1004.8 1002.7 0.0

Other Formats:

Comma delimited format used in spreadsheet applications
http://www.bom.gov.au/fwo/IDQ60801/IDQ60801.95351.axf

JavaScript Object Notation format (JSON) in row-major order
http://www.bom.gov.au/fwo/IDQ60801/IDQ60801.95351.json